GFA513 OMDB-OBBI
Flight info
| Callsign | GFA513 |
|---|---|
| Flight time | 0h 48m |
| Altitude | 26000 |
| Route | NABIX P699 ORMID M556 ORDIG |
| Aircraft | A320/M-SDE3FGHIRWY/LB1 |
Departure
| Time | 2026-04-22 23:18 |
|---|---|
| Airport | Dubai International Airport (OMDB) |
Arrival
| Time | 2026-04-23 00:07 |
|---|---|
| Airport | Bahrain International Airport (OBBI) |
| Time | Latitude | Longitude | Altitude | Speed | Heading |
|---|---|---|---|---|---|
| 2026-04-22 22:22 | 25.25706 | 55.34792 | 25 ft | 0 kts | 260° |
| 2026-04-22 22:48 | 25.25706 | 55.34793 | 21 ft | 0 kts | 260° |
| 2026-04-22 23:04 | 25.25709 | 55.34816 | 20 ft | 4 kts | 266° |
| 2026-04-22 23:04 | 25.25709 | 55.34845 | 21 ft | 4 kts | 276° |
| 2026-04-22 23:04 | 25.25704 | 55.34874 | 23 ft | 4 kts | 288° |
| 2026-04-22 23:05 | 25.25694 | 55.34902 | 22 ft | 4 kts | 304° |
| 2026-04-22 23:05 | 25.25677 | 55.34923 | 21 ft | 4 kts | 335° |
| 2026-04-22 23:05 | 25.25653 | 55.34926 | 22 ft | 4 kts | 9° |
| 2026-04-22 23:05 | 25.25627 | 55.34918 | 24 ft | 4 kts | 26° |
| 2026-04-22 23:06 | 25.25604 | 55.34903 | 22 ft | 4 kts | 35° |
| 2026-04-22 23:06 | 25.25595 | 55.34896 | 23 ft | 1 kts | 33° |
| 2026-04-22 23:10 | 25.25622 | 55.34916 | 22 ft | 11 kts | 33° |
| 2026-04-22 23:10 | 25.25689 | 55.34955 | 21 ft | 10 kts | 35° |
| 2026-04-22 23:10 | 25.25743 | 55.34997 | 21 ft | 9 kts | 34° |
| 2026-04-22 23:11 | 25.25791 | 55.35030 | 21 ft | 7 kts | 31° |
| 2026-04-22 23:11 | 25.25835 | 55.35058 | 23 ft | 9 kts | 30° |
| 2026-04-22 23:11 | 25.25907 | 55.35106 | 21 ft | 15 kts | 32° |
| 2026-04-22 23:11 | 25.26008 | 55.35175 | 21 ft | 18 kts | 31° |
| 2026-04-22 23:12 | 25.26112 | 55.35249 | 22 ft | 17 kts | 38° |
| 2026-04-22 23:12 | 25.26101 | 55.35337 | 21 ft | 10 kts | 120° |
| 2026-04-22 23:12 | 25.26070 | 55.35395 | 22 ft | 8 kts | 122° |
| 2026-04-22 23:12 | 25.26043 | 55.35441 | 23 ft | 6 kts | 122° |
| 2026-04-22 23:13 | 25.26021 | 55.35478 | 20 ft | 5 kts | 122° |
| 2026-04-22 23:13 | 25.26005 | 55.35506 | 21 ft | 4 kts | 122° |
| 2026-04-22 23:13 | 25.25977 | 55.35557 | 21 ft | 15 kts | 120° |
| 2026-04-22 23:13 | 25.25904 | 55.35693 | 22 ft | 22 kts | 121° |
| 2026-04-22 23:14 | 25.25819 | 55.35843 | 22 ft | 24 kts | 122° |
| 2026-04-22 23:14 | 25.25733 | 55.36003 | 21 ft | 25 kts | 121° |
| 2026-04-22 23:14 | 25.25641 | 55.36167 | 22 ft | 26 kts | 122° |
| 2026-04-22 23:14 | 25.25545 | 55.36339 | 22 ft | 27 kts | 121° |
| 2026-04-22 23:15 | 25.25447 | 55.36517 | 23 ft | 28 kts | 122° |
| 2026-04-22 23:15 | 25.25344 | 55.36700 | 22 ft | 29 kts | 122° |
| 2026-04-22 23:15 | 25.25240 | 55.36888 | 22 ft | 22 kts | 121° |
| 2026-04-22 23:15 | 25.25203 | 55.36957 | 24 ft | 9 kts | 121° |
| 2026-04-22 23:16 | 25.25170 | 55.37017 | 23 ft | 11 kts | 121° |
| 2026-04-22 23:16 | 25.25118 | 55.37108 | 25 ft | 14 kts | 122° |
| 2026-04-22 23:16 | 25.25118 | 55.37185 | 26 ft | 9 kts | 49° |
| 2026-04-22 23:16 | 25.25175 | 55.37225 | 27 ft | 13 kts | 31° |
| 2026-04-22 23:17 | 25.25242 | 55.37247 | 27 ft | 0 kts | 303° |
| 2026-04-22 23:17 | 25.25250 | 55.37232 | 23 ft | 13 kts | 303° |
| 2026-04-22 23:17 | 25.25445 | 55.36883 | 22 ft | 90 kts | 301° |
| 2026-04-22 23:17 | 25.25877 | 55.36105 | 24 ft | 146 kts | 301° |
| 2026-04-22 23:18 | 25.26452 | 55.35090 | 493 ft | 145 kts | 302° |
| 2026-04-22 23:18 | 25.26926 | 55.34244 | 1214 ft | 126 kts | 303° |
| 2026-04-22 23:18 | 25.27422 | 55.33327 | 1403 ft | 154 kts | 301° |
| 2026-04-22 23:18 | 25.27944 | 55.32306 | 2103 ft | 143 kts | 298° |
| 2026-04-22 23:19 | 25.28399 | 55.31288 | 2640 ft | 155 kts | 295° |
| 2026-04-22 23:19 | 25.28842 | 55.30109 | 3060 ft | 178 kts | 290° |
| 2026-04-22 23:19 | 25.29138 | 55.28693 | 3445 ft | 206 kts | 262° |
| 2026-04-22 23:19 | 25.28758 | 55.27106 | 4070 ft | 223 kts | 254° |
| 2026-04-22 23:20 | 25.28488 | 55.25312 | 4660 ft | 250 kts | 263° |
| 2026-04-22 23:20 | 25.28340 | 55.23316 | 5423 ft | 270 kts | 264° |
| 2026-04-22 23:20 | 25.28211 | 55.21217 | 6553 ft | 275 kts | 264° |
| 2026-04-22 23:20 | 25.28070 | 55.19101 | 7726 ft | 278 kts | 263° |
| 2026-04-22 23:21 | 25.27901 | 55.16954 | 8921 ft | 282 kts | 263° |
| 2026-04-22 23:21 | 25.27705 | 55.14780 | 10046 ft | 286 kts | 262° |
| 2026-04-22 23:21 | 25.27484 | 55.12539 | 10779 ft | 305 kts | 262° |
| 2026-04-22 23:21 | 25.27232 | 55.10113 | 11275 ft | 330 kts | 262° |
| 2026-04-22 23:22 | 25.26961 | 55.07544 | 12012 ft | 341 kts | 262° |
| 2026-04-22 23:22 | 25.26683 | 55.04916 | 12951 ft | 347 kts | 262° |
| 2026-04-22 23:22 | 25.26405 | 55.02250 | 13899 ft | 352 kts | 262° |
| 2026-04-22 23:22 | 25.26119 | 54.99516 | 14470 ft | 368 kts | 262° |
| 2026-04-22 23:23 | 25.25814 | 54.96620 | 14693 ft | 390 kts | 262° |
| 2026-04-22 23:23 | 25.25490 | 54.93559 | 14771 ft | 412 kts | 263° |
| 2026-04-22 23:23 | 25.25148 | 54.90332 | 14822 ft | 430 kts | 263° |
| 2026-04-22 23:23 | 25.24804 | 54.87090 | 15271 ft | 415 kts | 263° |
| 2026-04-22 23:24 | 25.24472 | 54.83955 | 16083 ft | 404 kts | 263° |
| 2026-04-22 23:24 | 25.24156 | 54.80948 | 17410 ft | 385 kts | 263° |
| 2026-04-22 23:24 | 25.23850 | 54.78061 | 18463 ft | 376 kts | 263° |
| 2026-04-22 23:24 | 25.23541 | 54.75195 | 19093 ft | 375 kts | 263° |
| 2026-04-22 23:25 | 25.23235 | 54.72364 | 19623 ft | 377 kts | 263° |
| 2026-04-22 23:25 | 25.22924 | 54.69477 | 20140 ft | 380 kts | 263° |
| 2026-04-22 23:25 | 25.22608 | 54.66560 | 20648 ft | 383 kts | 262° |
| 2026-04-22 23:25 | 25.22291 | 54.63634 | 21150 ft | 386 kts | 262° |
| 2026-04-22 23:26 | 25.21972 | 54.60683 | 21647 ft | 388 kts | 262° |
| 2026-04-22 23:26 | 25.21652 | 54.57710 | 22137 ft | 391 kts | 262° |
| 2026-04-22 23:26 | 25.21387 | 54.54714 | 22603 ft | 394 kts | 267° |
| 2026-04-22 23:26 | 25.21562 | 54.51676 | 23051 ft | 399 kts | 277° |
| 2026-04-22 23:27 | 25.22220 | 54.48681 | 23469 ft | 403 kts | 283° |
| 2026-04-22 23:27 | 25.22984 | 54.45693 | 23858 ft | 406 kts | 283° |
| 2026-04-22 23:27 | 25.23748 | 54.42693 | 24226 ft | 407 kts | 283° |
| 2026-04-22 23:27 | 25.24512 | 54.39668 | 24615 ft | 409 kts | 283° |
| 2026-04-22 23:28 | 25.25273 | 54.36635 | 24995 ft | 410 kts | 283° |
| 2026-04-22 23:28 | 25.26031 | 54.33597 | 25356 ft | 411 kts | 283° |
| 2026-04-22 23:28 | 25.26794 | 54.30543 | 25686 ft | 413 kts | 283° |
| 2026-04-22 23:28 | 25.27554 | 54.27496 | 25766 ft | 408 kts | 283° |
| 2026-04-22 23:29 | 25.28301 | 54.24488 | 25782 ft | 403 kts | 283° |
| 2026-04-22 23:29 | 25.29037 | 54.21515 | 25779 ft | 401 kts | 283° |
| 2026-04-22 23:29 | 25.29768 | 54.18547 | 25782 ft | 400 kts | 283° |
| 2026-04-22 23:29 | 25.30497 | 54.15581 | 25779 ft | 400 kts | 283° |
| 2026-04-22 23:30 | 25.31223 | 54.12619 | 25776 ft | 400 kts | 283° |
| 2026-04-22 23:30 | 25.31904 | 54.09637 | 25772 ft | 399 kts | 282° |
| 2026-04-22 23:30 | 25.32540 | 54.06653 | 25778 ft | 399 kts | 281° |
| 2026-04-22 23:30 | 25.33154 | 54.03663 | 25774 ft | 399 kts | 281° |
| 2026-04-22 23:31 | 25.33762 | 54.00676 | 25774 ft | 398 kts | 281° |
| 2026-04-22 23:31 | 25.34372 | 53.97694 | 25772 ft | 398 kts | 281° |
| 2026-04-22 23:31 | 25.34991 | 53.94707 | 25768 ft | 398 kts | 281° |
| 2026-04-22 23:31 | 25.35612 | 53.91731 | 25768 ft | 398 kts | 281° |
| 2026-04-22 23:32 | 25.36238 | 53.88754 | 25766 ft | 397 kts | 282° |
| 2026-04-22 23:32 | 25.36866 | 53.85782 | 25769 ft | 397 kts | 282° |
| 2026-04-22 23:32 | 25.37493 | 53.82810 | 25768 ft | 397 kts | 282° |
| 2026-04-22 23:32 | 25.38119 | 53.79837 | 25766 ft | 397 kts | 282° |
| 2026-04-22 23:33 | 25.38746 | 53.76868 | 25766 ft | 396 kts | 282° |
| 2026-04-22 23:33 | 25.39374 | 53.73901 | 25776 ft | 396 kts | 282° |
| 2026-04-22 23:33 | 25.40000 | 53.70939 | 25779 ft | 396 kts | 282° |
| 2026-04-22 23:33 | 25.40623 | 53.67976 | 25779 ft | 395 kts | 282° |
| 2026-04-22 23:34 | 25.41137 | 53.65518 | 25779 ft | 395 kts | 282° |
| 2026-04-22 23:34 | 25.41710 | 53.62763 | 25781 ft | 395 kts | 282° |
| 2026-04-22 23:34 | 25.42325 | 53.59807 | 25779 ft | 394 kts | 282° |
| 2026-04-22 23:34 | 25.42933 | 53.56891 | 25781 ft | 394 kts | 281° |
| 2026-04-22 23:35 | 25.43547 | 53.53934 | 25784 ft | 394 kts | 281° |
| 2026-04-22 23:35 | 25.44162 | 53.50976 | 25782 ft | 394 kts | 281° |
| 2026-04-22 23:35 | 25.44775 | 53.48022 | 25789 ft | 394 kts | 281° |
| 2026-04-22 23:35 | 25.45387 | 53.45070 | 25786 ft | 394 kts | 281° |
| 2026-04-22 23:36 | 25.46000 | 53.42121 | 25790 ft | 394 kts | 281° |
| 2026-04-22 23:36 | 25.46614 | 53.39167 | 25788 ft | 394 kts | 281° |
| 2026-04-22 23:36 | 25.47223 | 53.36219 | 25790 ft | 394 kts | 281° |
| 2026-04-22 23:36 | 25.47835 | 53.33264 | 25790 ft | 394 kts | 281° |
| 2026-04-22 23:37 | 25.48447 | 53.30308 | 25792 ft | 394 kts | 281° |
| 2026-04-22 23:37 | 25.49058 | 53.27356 | 25791 ft | 394 kts | 281° |
| 2026-04-22 23:37 | 25.49667 | 53.24413 | 25796 ft | 394 kts | 281° |
| 2026-04-22 23:37 | 25.50279 | 53.21454 | 25794 ft | 394 kts | 281° |
| 2026-04-22 23:38 | 25.50886 | 53.18496 | 25797 ft | 394 kts | 281° |
| 2026-04-22 23:38 | 25.51492 | 53.15539 | 25797 ft | 394 kts | 281° |
| 2026-04-22 23:38 | 25.52098 | 53.12579 | 25798 ft | 394 kts | 281° |
| 2026-04-22 23:38 | 25.52701 | 53.09622 | 25800 ft | 394 kts | 281° |
| 2026-04-22 23:39 | 25.53303 | 53.06673 | 25802 ft | 394 kts | 281° |
| 2026-04-22 23:39 | 25.53908 | 53.03708 | 25799 ft | 394 kts | 281° |
| 2026-04-22 23:39 | 25.54511 | 53.00748 | 25799 ft | 394 kts | 281° |
| 2026-04-22 23:39 | 25.55112 | 52.97793 | 25806 ft | 394 kts | 281° |
| 2026-04-22 23:40 | 25.55569 | 52.95550 | 25803 ft | 394 kts | 281° |
| 2026-04-22 23:40 | 25.56182 | 52.92589 | 25806 ft | 394 kts | 283° |
| 2026-04-22 23:40 | 25.56855 | 52.90396 | 25807 ft | 396 kts | 291° |
| 2026-04-22 23:40 | 25.58107 | 52.87670 | 25809 ft | 398 kts | 296° |
| 2026-04-22 23:41 | 25.59431 | 52.84977 | 25808 ft | 398 kts | 296° |
| 2026-04-22 23:41 | 25.60752 | 52.82279 | 25805 ft | 399 kts | 296° |
| 2026-04-22 23:41 | 25.62072 | 52.79579 | 25806 ft | 399 kts | 296° |
| 2026-04-22 23:41 | 25.63391 | 52.76872 | 25805 ft | 399 kts | 295° |
| 2026-04-22 23:42 | 25.64709 | 52.74163 | 25807 ft | 399 kts | 295° |
| 2026-04-22 23:42 | 25.65581 | 52.72367 | 25812 ft | 399 kts | 295° |
| 2026-04-22 23:42 | 25.66895 | 52.69656 | 25814 ft | 399 kts | 295° |
| 2026-04-22 23:42 | 25.68638 | 52.66060 | 25817 ft | 399 kts | 295° |
| 2026-04-22 23:43 | 25.69955 | 52.63347 | 25815 ft | 399 kts | 295° |
| 2026-04-22 23:43 | 25.71273 | 52.60633 | 25818 ft | 399 kts | 295° |
| 2026-04-22 23:43 | 25.72162 | 52.58802 | 25815 ft | 399 kts | 295° |
| 2026-04-22 23:43 | 25.73479 | 52.56092 | 25815 ft | 399 kts | 295° |
| 2026-04-22 23:44 | 25.74795 | 52.53384 | 25816 ft | 399 kts | 295° |
| 2026-04-22 23:44 | 25.76115 | 52.50668 | 25819 ft | 399 kts | 295° |
| 2026-04-22 23:44 | 25.77411 | 52.47954 | 25820 ft | 399 kts | 295° |
| 2026-04-22 23:44 | 25.78689 | 52.45213 | 25820 ft | 398 kts | 294° |
| 2026-04-22 23:45 | 25.79928 | 52.42520 | 25820 ft | 398 kts | 294° |
| 2026-04-22 23:45 | 25.81204 | 52.39743 | 25818 ft | 398 kts | 294° |
| 2026-04-22 23:45 | 25.82870 | 52.36124 | 25817 ft | 398 kts | 294° |
| 2026-04-22 23:45 | 25.83724 | 52.34276 | 25816 ft | 398 kts | 294° |
| 2026-04-22 23:46 | 25.85001 | 52.31520 | 25827 ft | 407 kts | 294° |
| 2026-04-22 23:46 | 25.86308 | 52.28719 | 25826 ft | 419 kts | 296° |
| 2026-04-22 23:46 | 25.88000 | 52.25962 | 25827 ft | 434 kts | 307° |
| 2026-04-22 23:46 | 25.90028 | 52.23483 | 25828 ft | 444 kts | 309° |
| 2026-04-22 23:47 | 25.92141 | 52.20943 | 25827 ft | 453 kts | 309° |
| 2026-04-22 23:47 | 25.94296 | 52.18347 | 25825 ft | 459 kts | 309° |
| 2026-04-22 23:47 | 25.96477 | 52.15712 | 25829 ft | 465 kts | 309° |
| 2026-04-22 23:47 | 25.98673 | 52.13058 | 25827 ft | 468 kts | 309° |
| 2026-04-22 23:48 | 26.00881 | 52.10387 | 25826 ft | 469 kts | 309° |
| 2026-04-22 23:48 | 26.03088 | 52.07713 | 25830 ft | 469 kts | 309° |
| 2026-04-22 23:48 | 26.05294 | 52.05035 | 25828 ft | 469 kts | 309° |
| 2026-04-22 23:48 | 26.07498 | 52.02359 | 25830 ft | 469 kts | 309° |
| 2026-04-22 23:49 | 26.09704 | 51.99686 | 25833 ft | 468 kts | 309° |
| 2026-04-22 23:49 | 26.11907 | 51.97025 | 25830 ft | 469 kts | 309° |
| 2026-04-22 23:49 | 26.14117 | 51.94353 | 25828 ft | 469 kts | 309° |
| 2026-04-22 23:49 | 26.16324 | 51.91682 | 25839 ft | 469 kts | 309° |
| 2026-04-22 23:50 | 26.18529 | 51.89009 | 25833 ft | 468 kts | 309° |
| 2026-04-22 23:50 | 26.20729 | 51.86341 | 25835 ft | 468 kts | 309° |
| 2026-04-22 23:50 | 26.22931 | 51.83668 | 25837 ft | 468 kts | 309° |
| 2026-04-22 23:50 | 26.24999 | 51.80909 | 25833 ft | 455 kts | 301° |
| 2026-04-22 23:51 | 26.26510 | 51.77945 | 25837 ft | 428 kts | 294° |
| 2026-04-22 23:51 | 26.27807 | 51.75030 | 25629 ft | 413 kts | 294° |
| 2026-04-22 23:51 | 26.29072 | 51.72192 | 25114 ft | 407 kts | 293° |
| 2026-04-22 23:51 | 26.30322 | 51.69380 | 24558 ft | 403 kts | 293° |
| 2026-04-22 23:52 | 26.31551 | 51.66615 | 23707 ft | 395 kts | 293° |
| 2026-04-22 23:52 | 26.32762 | 51.63892 | 22711 ft | 390 kts | 293° |
| 2026-04-22 23:52 | 26.33942 | 51.61246 | 22280 ft | 371 kts | 292° |
| 2026-04-22 23:52 | 26.35069 | 51.58730 | 21827 ft | 355 kts | 292° |
| 2026-04-22 23:53 | 26.36148 | 51.56317 | 21382 ft | 340 kts | 292° |
| 2026-04-22 23:53 | 26.37192 | 51.53970 | 20970 ft | 346 kts | 291° |
| 2026-04-22 23:53 | 26.38159 | 51.51483 | 20558 ft | 350 kts | 285° |
| 2026-04-22 23:53 | 26.38964 | 51.48933 | 20148 ft | 350 kts | 285° |
| 2026-04-22 23:54 | 26.39785 | 51.46369 | 19738 ft | 349 kts | 285° |
| 2026-04-22 23:54 | 26.40604 | 51.43831 | 19343 ft | 347 kts | 285° |
| 2026-04-22 23:54 | 26.41416 | 51.41312 | 18949 ft | 345 kts | 285° |
| 2026-04-22 23:54 | 26.42224 | 51.38796 | 18567 ft | 343 kts | 284° |
| 2026-04-22 23:55 | 26.43021 | 51.36302 | 18184 ft | 341 kts | 284° |
| 2026-04-22 23:55 | 26.43811 | 51.33816 | 17749 ft | 339 kts | 284° |
| 2026-04-22 23:55 | 26.44589 | 51.31362 | 17316 ft | 337 kts | 284° |
| 2026-04-22 23:55 | 26.45246 | 51.28878 | 16883 ft | 330 kts | 274° |
| 2026-04-22 23:56 | 26.45376 | 51.26364 | 16459 ft | 321 kts | 262° |
| 2026-04-22 23:56 | 26.44980 | 51.23938 | 16030 ft | 316 kts | 249° |
| 2026-04-22 23:56 | 26.44182 | 51.21674 | 15618 ft | 313 kts | 245° |
| 2026-04-22 23:56 | 26.43346 | 51.19433 | 15216 ft | 311 kts | 245° |
| 2026-04-22 23:57 | 26.42540 | 51.17260 | 14810 ft | 297 kts | 245° |
| 2026-04-22 23:57 | 26.41767 | 51.15172 | 14410 ft | 285 kts | 245° |
| 2026-04-22 23:57 | 26.41022 | 51.13164 | 13933 ft | 278 kts | 244° |
| 2026-04-22 23:57 | 26.40285 | 51.11179 | 13289 ft | 275 kts | 244° |
| 2026-04-22 23:58 | 26.39554 | 51.09213 | 12597 ft | 274 kts | 245° |
| 2026-04-22 23:58 | 26.38825 | 51.07254 | 11937 ft | 273 kts | 245° |
| 2026-04-22 23:58 | 26.38098 | 51.05305 | 11263 ft | 272 kts | 245° |
| 2026-04-22 23:58 | 26.37377 | 51.03370 | 10601 ft | 271 kts | 245° |
| 2026-04-22 23:59 | 26.36652 | 51.01419 | 9936 ft | 271 kts | 246° |
| 2026-04-22 23:59 | 26.35945 | 50.99466 | 9234 ft | 271 kts | 247° |
| 2026-04-22 23:59 | 26.35202 | 50.97546 | 8533 ft | 270 kts | 243° |
| 2026-04-22 23:59 | 26.34283 | 50.95725 | 7833 ft | 269 kts | 242° |
| 2026-04-23 00:00 | 26.32463 | 50.92151 | 7042 ft | 266 kts | 225° |
| 2026-04-23 00:00 | 26.30843 | 50.91126 | 6928 ft | 273 kts | 204° |
| 2026-04-23 00:00 | 26.29090 | 50.90325 | 6425 ft | 271 kts | 209° |
| 2026-04-23 00:01 | 26.27430 | 50.89353 | 5714 ft | 269 kts | 213° |
| 2026-04-23 00:01 | 26.25807 | 50.88325 | 5042 ft | 268 kts | 212° |
| 2026-04-23 00:01 | 26.24260 | 50.87301 | 4845 ft | 248 kts | 213° |
| 2026-04-23 00:01 | 26.22843 | 50.86346 | 4731 ft | 228 kts | 213° |
| 2026-04-23 00:02 | 26.21518 | 50.85445 | 4432 ft | 221 kts | 213° |
| 2026-04-23 00:02 | 26.20210 | 50.84549 | 3987 ft | 220 kts | 215° |
| 2026-04-23 00:02 | 26.19166 | 50.83338 | 3507 ft | 216 kts | 248° |
| 2026-04-23 00:02 | 26.18828 | 50.81760 | 3177 ft | 204 kts | 269° |
| 2026-04-23 00:03 | 26.18752 | 50.80228 | 3041 ft | 193 kts | 272° |
| 2026-04-23 00:03 | 26.18715 | 50.78754 | 2749 ft | 190 kts | 277° |
| 2026-04-23 00:03 | 26.19021 | 50.77360 | 2505 ft | 183 kts | 301° |
| 2026-04-23 00:03 | 26.19681 | 50.76153 | 2340 ft | 180 kts | 308° |
| 2026-04-23 00:04 | 26.20349 | 50.75007 | 2118 ft | 173 kts | 309° |
| 2026-04-23 00:04 | 26.20978 | 50.73921 | 1937 ft | 164 kts | 309° |
| 2026-04-23 00:04 | 26.21588 | 50.72870 | 1720 ft | 160 kts | 309° |
| 2026-04-23 00:04 | 26.22187 | 50.71836 | 1454 ft | 157 kts | 309° |
| 2026-04-23 00:05 | 26.22778 | 50.70816 | 1253 ft | 156 kts | 309° |
| 2026-04-23 00:05 | 26.23365 | 50.69801 | 1048 ft | 155 kts | 308° |
| 2026-04-23 00:05 | 26.23949 | 50.68791 | 863 ft | 156 kts | 309° |
| 2026-04-23 00:05 | 26.24567 | 50.67725 | 650 ft | 168 kts | 309° |
| 2026-04-23 00:06 | 26.25184 | 50.66654 | 414 ft | 156 kts | 307° |
| 2026-04-23 00:06 | 26.25745 | 50.65680 | 248 ft | 146 kts | 306° |
| 2026-04-23 00:06 | 26.26293 | 50.64728 | 55 ft | 144 kts | 305° |
| 2026-04-23 00:06 | 26.26783 | 50.63895 | 17 ft | 97 kts | 302° |
| 2026-04-23 00:07 | 26.26980 | 50.63541 | 16 ft | 19 kts | 302° |
| 2026-04-23 00:07 | 26.27072 | 50.63385 | 14 ft | 35 kts | 302° |
| 2026-04-23 00:07 | 26.27208 | 50.63143 | 16 ft | 29 kts | 290° |
| 2026-04-23 00:07 | 26.27253 | 50.62938 | 17 ft | 24 kts | 275° |
| 2026-04-23 00:08 | 26.27226 | 50.62837 | 19 ft | 7 kts | 196° |
| 2026-04-23 00:08 | 26.27190 | 50.62845 | 20 ft | 4 kts | 142° |
| 2026-04-23 00:08 | 26.27178 | 50.62860 | 20 ft | 1 kts | 127° |
| 2026-04-23 00:08 | 26.27177 | 50.62862 | 20 ft | 0 kts | 126° |
| 2026-04-23 00:09 | 26.27175 | 50.62865 | 20 ft | 3 kts | 123° |
| 2026-04-23 00:09 | 26.27147 | 50.62909 | 22 ft | 10 kts | 131° |
| 2026-04-23 00:09 | 26.27098 | 50.62981 | 22 ft | 12 kts | 122° |
| 2026-04-23 00:09 | 26.27057 | 50.63052 | 22 ft | 10 kts | 123° |
| 2026-04-23 00:10 | 26.27018 | 50.63118 | 21 ft | 10 kts | 123° |
| 2026-04-23 00:10 | 26.26978 | 50.63189 | 20 ft | 13 kts | 122° |
| 2026-04-23 00:10 | 26.26918 | 50.63293 | 20 ft | 17 kts | 122° |
| 2026-04-23 00:10 | 26.26846 | 50.63387 | 20 ft | 14 kts | 166° |
| 2026-04-23 00:11 | 26.26780 | 50.63365 | 23 ft | 8 kts | 181° |
| 2026-04-23 00:11 | 26.26730 | 50.63412 | 21 ft | 11 kts | 122° |
| 2026-04-23 00:11 | 26.26692 | 50.63479 | 22 ft | 9 kts | 122° |
| 2026-04-23 00:11 | 26.26662 | 50.63531 | 21 ft | 6 kts | 127° |
| 2026-04-23 00:12 | 26.26648 | 50.63527 | 21 ft | 2 kts | 204° |
| 2026-04-23 00:12 | 26.26612 | 50.63506 | 21 ft | 3 kts | 213° |
| 2026-04-23 00:12 | 26.26598 | 50.63496 | 21 ft | 2 kts | 211° |
| 2026-04-23 00:12 | 26.26589 | 50.63490 | 21 ft | 0 kts | 212° |
| 2026-04-23 00:13 | 26.26588 | 50.63490 | 21 ft | 1 kts | 212° |
| 2026-04-23 00:18 | 26.26588 | 50.63489 | 21 ft | 0 kts | 212° |